sensor_id;sensor_type;location;lat;lon;timestamp;P1;durP1;ratioP1;P2;durP2;ratioP2
938;SDS011;456;53.584;9.968;2024-01-16T00:01:45;2.20;;;1.50;;
938;SDS011;456;53.584;9.968;2024-01-16T00:04:11;1.50;;;1.40;;
938;SDS011;456;53.584;9.968;2024-01-16T00:06:40;2.43;;;1.50;;
938;SDS011;456;53.584;9.968;2024-01-16T00:09:06;1.17;;;1.07;;
938;SDS011;456;53.584;9.968;2024-01-16T00:11:32;1.47;;;1.37;;
938;SDS011;456;53.584;9.968;2024-01-16T00:13:58;1.70;;;1.60;;
938;SDS011;456;53.584;9.968;2024-01-16T00:16:24;2.27;;;1.53;;
938;SDS011;456;53.584;9.968;2024-01-16T00:18:50;1.60;;;1.50;;
938;SDS011;456;53.584;9.968;2024-01-16T00:21:16;1.83;;;1.70;;
938;SDS011;456;53.584;9.968;2024-01-16T00:23:42;3.03;;;1.73;;
938;SDS011;456;53.584;9.968;2024-01-16T00:26:08;2.27;;;2.00;;
938;SDS011;456;53.584;9.968;2024-01-16T00:28:44;2.73;;;2.10;;
938;SDS011;456;53.584;9.968;2024-01-16T00:31:10;2.67;;;2.20;;
938;SDS011;456;53.584;9.968;2024-01-16T00:33:36;2.10;;;1.90;;
938;SDS011;456;53.584;9.968;2024-01-16T00:36:02;3.03;;;2.50;;
938;SDS011;456;53.584;9.968;2024-01-16T00:38:28;2.13;;;1.83;;
938;SDS011;456;53.584;9.968;2024-01-16T00:40:54;2.73;;;2.33;;
938;SDS011;456;53.584;9.968;2024-01-16T00:43:20;2.83;;;2.30;;
938;SDS011;456;53.584;9.968;2024-01-16T00:45:46;3.20;;;2.23;;
938;SDS011;456;53.584;9.968;2024-01-16T00:48:13;2.40;;;2.20;;
938;SDS011;456;53.584;9.968;2024-01-16T00:50:39;2.30;;;2.10;;
938;SDS011;456;53.584;9.968;2024-01-16T00:53:05;2.07;;;1.93;;
938;SDS011;456;53.584;9.968;2024-01-16T00:55:31;2.53;;;2.33;;
938;SDS011;456;53.584;9.968;2024-01-16T00:57:57;2.30;;;2.10;;
938;SDS011;456;53.584;9.968;2024-01-16T01:00:23;2.30;;;2.10;;
938;SDS011;456;53.584;9.968;2024-01-16T01:02:48;2.60;;;2.10;;
938;SDS011;456;53.584;9.968;2024-01-16T01:05:14;2.60;;;2.00;;
938;SDS011;456;53.584;9.968;2024-01-16T01:07:40;2.67;;;1.83;;
938;SDS011;456;53.584;9.968;2024-01-16T01:10:06;1.97;;;1.77;;
938;SDS011;456;53.584;9.968;2024-01-16T01:12:32;1.90;;;1.80;;
938;SDS011;456;53.584;9.968;2024-01-16T01:14:58;2.40;;;2.20;;
938;SDS011;456;53.584;9.968;2024-01-16T01:17:24;2.03;;;1.93;;
938;SDS011;456;53.584;9.968;2024-01-16T01:19:50;2.20;;;2.00;;
938;SDS011;456;53.584;9.968;2024-01-16T01:22:16;1.93;;;1.80;;
938;SDS011;456;53.584;9.968;2024-01-16T01:24:42;2.43;;;1.77;;
938;SDS011;456;53.584;9.968;2024-01-16T01:27:08;2.03;;;1.83;;
938;SDS011;456;53.584;9.968;2024-01-16T01:29:34;1.83;;;1.70;;
938;SDS011;456;53.584;9.968;2024-01-16T01:32:00;2.20;;;1.97;;
938;SDS011;456;53.584;9.968;2024-01-16T01:34:26;2.07;;;1.97;;
938;SDS011;456;53.584;9.968;2024-01-16T01:36:52;2.00;;;1.90;;
938;SDS011;456;53.584;9.968;2024-01-16T01:39:18;2.23;;;2.00;;
938;SDS011;456;53.584;9.968;2024-01-16T01:41:44;1.90;;;1.80;;
938;SDS011;456;53.584;9.968;2024-01-16T01:44:10;2.37;;;2.13;;
938;SDS011;456;53.584;9.968;2024-01-16T01:46:40;1.97;;;1.80;;
938;SDS011;456;53.584;9.968;2024-01-16T01:49:06;1.90;;;1.80;;
938;SDS011;456;53.584;9.968;2024-01-16T01:51:32;2.13;;;1.93;;
938;SDS011;456;53.584;9.968;2024-01-16T01:53:59;2.23;;;2.00;;
938;SDS011;456;53.584;9.968;2024-01-16T01:56:26;2.00;;;1.80;;
938;SDS011;456;53.584;9.968;2024-01-16T01:58:53;2.40;;;2.10;;
938;SDS011;456;53.584;9.968;2024-01-16T02:01:19;2.37;;;2.10;;
938;SDS011;456;53.584;9.968;2024-01-16T02:03:46;2.17;;;1.87;;
938;SDS011;456;53.584;9.968;2024-01-16T02:06:13;2.13;;;1.93;;
938;SDS011;456;53.584;9.968;2024-01-16T02:08:41;2.50;;;1.90;;
938;SDS011;456;53.584;9.968;2024-01-16T02:11:07;2.20;;;2.00;;
938;SDS011;456;53.584;9.968;2024-01-16T02:13:33;1.83;;;1.73;;
938;SDS011;456;53.584;9.968;2024-01-16T02:15:59;1.73;;;1.63;;
938;SDS011;456;53.584;9.968;2024-01-16T02:18:26;2.40;;;2.30;;
938;SDS011;456;53.584;9.968;2024-01-16T02:20:52;2.23;;;2.13;;
938;SDS011;456;53.584;9.968;2024-01-16T02:23:27;3.07;;;2.60;;
938;SDS011;456;53.584;9.968;2024-01-16T02:25:54;2.70;;;2.50;;
938;SDS011;456;53.584;9.968;2024-01-16T02:28:20;2.23;;;2.13;;
938;SDS011;456;53.584;9.968;2024-01-16T02:30:46;2.10;;;2.00;;
938;SDS011;456;53.584;9.968;2024-01-16T02:33:12;2.70;;;2.20;;
938;SDS011;456;53.584;9.968;2024-01-16T02:35:38;2.43;;;2.27;;
938;SDS011;456;53.584;9.968;2024-01-16T02:38:04;2.13;;;2.00;;
938;SDS011;456;53.584;9.968;2024-01-16T02:40:30;2.50;;;2.30;;
938;SDS011;456;53.584;9.968;2024-01-16T02:42:56;2.40;;;2.10;;
938;SDS011;456;53.584;9.968;2024-01-16T02:45:22;2.43;;;2.23;;
938;SDS011;456;53.584;9.968;2024-01-16T02:47:48;1.90;;;1.80;;
938;SDS011;456;53.584;9.968;2024-01-16T02:50:14;2.57;;;2.37;;
938;SDS011;456;53.584;9.968;2024-01-16T02:52:40;1.97;;;1.87;;
938;SDS011;456;53.584;9.968;2024-01-16T02:55:06;1.90;;;1.80;;
938;SDS011;456;53.584;9.968;2024-01-16T02:57:32;2.77;;;2.00;;
938;SDS011;456;53.584;9.968;2024-01-16T02:59:58;1.87;;;1.77;;
938;SDS011;456;53.584;9.968;2024-01-16T03:02:24;2.50;;;1.87;;
938;SDS011;456;53.584;9.968;2024-01-16T03:04:50;1.97;;;1.87;;
938;SDS011;456;53.584;9.968;2024-01-16T03:07:16;2.07;;;1.97;;
938;SDS011;456;53.584;9.968;2024-01-16T03:09:42;2.30;;;2.10;;
938;SDS011;456;53.584;9.968;2024-01-16T03:12:08;2.00;;;1.80;;
938;SDS011;456;53.584;9.968;2024-01-16T03:14:34;2.20;;;2.00;;
938;SDS011;456;53.584;9.968;2024-01-16T03:17:02;1.57;;;1.47;;
938;SDS011;456;53.584;9.968;2024-01-16T03:19:28;1.50;;;1.40;;
938;SDS011;456;53.584;9.968;2024-01-16T03:21:54;2.00;;;1.90;;
938;SDS011;456;53.584;9.968;2024-01-16T03:24:20;1.80;;;1.70;;
938;SDS011;456;53.584;9.968;2024-01-16T03:26:47;1.77;;;1.67;;
938;SDS011;456;53.584;9.968;2024-01-16T03:29:12;1.53;;;1.43;;
938;SDS011;456;53.584;9.968;2024-01-16T03:31:38;2.23;;;1.80;;
938;SDS011;456;53.584;9.968;2024-01-16T03:34:04;2.00;;;1.80;;
938;SDS011;456;53.584;9.968;2024-01-16T03:36:30;1.70;;;1.60;;
938;SDS011;456;53.584;9.968;2024-01-16T03:38:56;1.60;;;1.50;;
938;SDS011;456;53.584;9.968;2024-01-16T03:41:22;2.20;;;1.93;;
938;SDS011;456;53.584;9.968;2024-01-16T03:43:48;2.10;;;1.90;;
938;SDS011;456;53.584;9.968;2024-01-16T03:46:14;1.70;;;1.60;;
938;SDS011;456;53.584;9.968;2024-01-16T03:48:40;1.70;;;1.60;;
938;SDS011;456;53.584;9.968;2024-01-16T03:51:06;1.70;;;1.60;;
938;SDS011;456;53.584;9.968;2024-01-16T03:53:32;1.83;;;1.63;;
938;SDS011;456;53.584;9.968;2024-01-16T03:55:58;1.90;;;1.63;;
938;SDS011;456;53.584;9.968;2024-01-16T03:58:24;1.77;;;1.67;;
938;SDS011;456;53.584;9.968;2024-01-16T04:00:50;1.80;;;1.53;;
938;SDS011;456;53.584;9.968;2024-01-16T04:03:18;1.67;;;1.57;;
938;SDS011;456;53.584;9.968;2024-01-16T04:05:44;1.40;;;1.30;;
938;SDS011;456;53.584;9.968;2024-01-16T04:08:10;1.43;;;1.33;;
938;SDS011;456;53.584;9.968;2024-01-16T04:10:37;1.40;;;1.30;;
938;SDS011;456;53.584;9.968;2024-01-16T04:13:03;1.60;;;1.50;;
938;SDS011;456;53.584;9.968;2024-01-16T04:15:29;1.43;;;1.30;;
938;SDS011;456;53.584;9.968;2024-01-16T04:17:55;2.43;;;1.77;;
938;SDS011;456;53.584;9.968;2024-01-16T04:20:21;1.50;;;1.20;;
938;SDS011;456;53.584;9.968;2024-01-16T04:22:47;1.53;;;1.10;;
938;SDS011;456;53.584;9.968;2024-01-16T04:25:12;1.80;;;1.40;;
938;SDS011;456;53.584;9.968;2024-01-16T04:27:39;1.20;;;1.00;;
938;SDS011;456;53.584;9.968;2024-01-16T04:30:05;1.10;;;1.00;;
938;SDS011;456;53.584;9.968;2024-01-16T04:32:32;1.03;;;0.80;;
938;SDS011;456;53.584;9.968;2024-01-16T04:34:58;2.00;;;1.00;;
938;SDS011;456;53.584;9.968;2024-01-16T04:37:24;0.97;;;0.87;;
938;SDS011;456;53.584;9.968;2024-01-16T04:39:50;0.80;;;0.73;;
938;SDS011;456;53.584;9.968;2024-01-16T04:42:16;1.03;;;0.93;;
938;SDS011;456;53.584;9.968;2024-01-16T04:44:45;2.13;;;0.80;;
938;SDS011;456;53.584;9.968;2024-01-16T04:47:11;2.27;;;0.90;;
938;SDS011;456;53.584;9.968;2024-01-16T04:49:37;0.80;;;0.80;;
938;SDS011;456;53.584;9.968;2024-01-16T04:52:03;1.07;;;0.73;;
938;SDS011;456;53.584;9.968;2024-01-16T04:54:29;1.03;;;0.87;;
938;SDS011;456;53.584;9.968;2024-01-16T04:56:55;0.70;;;0.60;;
938;SDS011;456;53.584;9.968;2024-01-16T04:59:21;1.37;;;0.70;;
938;SDS011;456;53.584;9.968;2024-01-16T05:01:47;0.70;;;0.60;;
938;SDS011;456;53.584;9.968;2024-01-16T05:04:13;1.00;;;0.77;;
938;SDS011;456;53.584;9.968;2024-01-16T05:06:39;0.90;;;0.70;;
938;SDS011;456;53.584;9.968;2024-01-16T05:09:05;0.87;;;0.60;;
938;SDS011;456;53.584;9.968;2024-01-16T05:11:31;1.27;;;0.47;;
938;SDS011;456;53.584;9.968;2024-01-16T05:13:57;1.00;;;0.40;;
938;SDS011;456;53.584;9.968;2024-01-16T05:16:24;0.80;;;0.50;;
938;SDS011;456;53.584;9.968;2024-01-16T05:18:50;0.93;;;0.60;;
938;SDS011;456;53.584;9.968;2024-01-16T05:21:16;1.10;;;0.70;;
938;SDS011;456;53.584;9.968;2024-01-16T05:23:42;1.33;;;0.63;;
938;SDS011;456;53.584;9.968;2024-01-16T05:26:08;1.47;;;0.70;;
938;SDS011;456;53.584;9.968;2024-01-16T05:28:34;0.70;;;0.70;;
938;SDS011;456;53.584;9.968;2024-01-16T05:31:00;0.60;;;0.40;;
938;SDS011;456;53.584;9.968;2024-01-16T05:33:27;0.93;;;0.60;;
938;SDS011;456;53.584;9.968;2024-01-16T05:35:53;0.90;;;0.53;;
938;SDS011;456;53.584;9.968;2024-01-16T05:38:19;0.80;;;0.50;;
938;SDS011;456;53.584;9.968;2024-01-16T05:40:45;1.10;;;0.67;;
938;SDS011;456;53.584;9.968;2024-01-16T05:43:11;0.80;;;0.57;;
938;SDS011;456;53.584;9.968;2024-01-16T05:45:37;1.17;;;0.70;;
938;SDS011;456;53.584;9.968;2024-01-16T05:48:03;1.13;;;0.40;;
938;SDS011;456;53.584;9.968;2024-01-16T05:50:29;1.47;;;0.60;;
938;SDS011;456;53.584;9.968;2024-01-16T05:52:55;1.10;;;0.70;;
938;SDS011;456;53.584;9.968;2024-01-16T05:55:21;2.20;;;0.50;;
938;SDS011;456;53.584;9.968;2024-01-16T05:57:47;2.70;;;0.60;;
938;SDS011;456;53.584;9.968;2024-01-16T06:00:13;1.10;;;0.70;;
938;SDS011;456;53.584;9.968;2024-01-16T06:02:39;1.93;;;1.30;;
938;SDS011;456;53.584;9.968;2024-01-16T06:05:06;1.40;;;0.90;;
938;SDS011;456;53.584;9.968;2024-01-16T06:07:32;0.90;;;0.70;;
938;SDS011;456;53.584;9.968;2024-01-16T06:09:58;1.90;;;1.37;;
938;SDS011;456;53.584;9.968;2024-01-16T06:12:24;1.30;;;0.90;;
938;SDS011;456;53.584;9.968;2024-01-16T06:14:50;1.00;;;0.70;;
938;SDS011;456;53.584;9.968;2024-01-16T06:17:16;2.13;;;0.80;;
938;SDS011;456;53.584;9.968;2024-01-16T06:19:44;1.00;;;0.70;;
938;SDS011;456;53.584;9.968;2024-01-16T06:22:12;1.03;;;0.70;;
938;SDS011;456;53.584;9.968;2024-01-16T06:24:37;1.40;;;1.00;;
938;SDS011;456;53.584;9.968;2024-01-16T06:27:06;1.23;;;1.10;;
938;SDS011;456;53.584;9.968;2024-01-16T06:29:32;1.73;;;0.90;;
938;SDS011;456;53.584;9.968;2024-01-16T06:31:58;1.50;;;1.10;;
938;SDS011;456;53.584;9.968;2024-01-16T06:34:24;1.40;;;0.90;;
938;SDS011;456;53.584;9.968;2024-01-16T06:36:51;1.57;;;1.00;;
938;SDS011;456;53.584;9.968;2024-01-16T06:39:16;1.73;;;1.20;;
938;SDS011;456;53.584;9.968;2024-01-16T06:41:43;1.77;;;1.63;;
938;SDS011;456;53.584;9.968;2024-01-16T06:44:09;1.37;;;1.27;;
938;SDS011;456;53.584;9.968;2024-01-16T06:46:35;2.13;;;1.53;;
938;SDS011;456;53.584;9.968;2024-01-16T06:49:01;1.37;;;0.97;;
938;SDS011;456;53.584;9.968;2024-01-16T06:51:27;1.80;;;1.57;;
938;SDS011;456;53.584;9.968;2024-01-16T06:53:53;2.80;;;1.40;;
938;SDS011;456;53.584;9.968;2024-01-16T06:56:20;1.80;;;1.33;;
938;SDS011;456;53.584;9.968;2024-01-16T06:58:46;1.97;;;1.23;;
938;SDS011;456;53.584;9.968;2024-01-16T07:01:11;1.77;;;1.50;;
938;SDS011;456;53.584;9.968;2024-01-16T07:03:39;1.57;;;1.43;;
938;SDS011;456;53.584;9.968;2024-01-16T07:06:05;1.90;;;1.40;;
938;SDS011;456;53.584;9.968;2024-01-16T07:08:31;1.70;;;1.60;;
938;SDS011;456;53.584;9.968;2024-01-16T07:10:57;1.87;;;1.67;;
938;SDS011;456;53.584;9.968;2024-01-16T07:13:23;2.13;;;1.33;;
938;SDS011;456;53.584;9.968;2024-01-16T07:15:49;1.73;;;1.63;;
938;SDS011;456;53.584;9.968;2024-01-16T07:18:15;3.50;;;1.60;;
938;SDS011;456;53.584;9.968;2024-01-16T07:20:41;3.83;;;1.60;;
938;SDS011;456;53.584;9.968;2024-01-16T07:23:07;1.93;;;1.50;;
938;SDS011;456;53.584;9.968;2024-01-16T07:25:33;2.17;;;1.60;;
938;SDS011;456;53.584;9.968;2024-01-16T07:27:58;2.43;;;1.70;;
938;SDS011;456;53.584;9.968;2024-01-16T07:30:25;3.17;;;2.10;;
938;SDS011;456;53.584;9.968;2024-01-16T07:32:51;2.27;;;1.93;;
938;SDS011;456;53.584;9.968;2024-01-16T07:35:16;2.53;;;1.97;;
938;SDS011;456;53.584;9.968;2024-01-16T07:37:42;4.20;;;1.70;;
938;SDS011;456;53.584;9.968;2024-01-16T07:40:08;1.97;;;1.77;;
938;SDS011;456;53.584;9.968;2024-01-16T07:42:34;1.83;;;1.50;;
938;SDS011;456;53.584;9.968;2024-01-16T07:45:00;1.87;;;1.50;;
938;SDS011;456;53.584;9.968;2024-01-16T07:47:29;1.83;;;1.63;;
938;SDS011;456;53.584;9.968;2024-01-16T07:49:56;2.33;;;1.77;;
938;SDS011;456;53.584;9.968;2024-01-16T07:52:22;2.80;;;1.77;;
938;SDS011;456;53.584;9.968;2024-01-16T07:54:47;2.27;;;1.70;;
938;SDS011;456;53.584;9.968;2024-01-16T07:57:13;2.63;;;1.70;;
938;SDS011;456;53.584;9.968;2024-01-16T07:59:39;2.20;;;1.43;;
938;SDS011;456;53.584;9.968;2024-01-16T08:02:06;2.20;;;1.80;;
938;SDS011;456;53.584;9.968;2024-01-16T08:04:31;2.00;;;1.60;;
938;SDS011;456;53.584;9.968;2024-01-16T08:06:57;2.60;;;1.70;;
938;SDS011;456;53.584;9.968;2024-01-16T08:09:23;2.53;;;1.40;;
938;SDS011;456;53.584;9.968;2024-01-16T08:11:49;1.40;;;1.30;;
938;SDS011;456;53.584;9.968;2024-01-16T08:14:14;1.50;;;1.40;;
938;SDS011;456;53.584;9.968;2024-01-16T08:16:40;3.07;;;1.50;;
938;SDS011;456;53.584;9.968;2024-01-16T08:19:06;1.80;;;1.47;;
938;SDS011;456;53.584;9.968;2024-01-16T08:21:31;1.60;;;1.50;;
938;SDS011;456;53.584;9.968;2024-01-16T08:23:57;1.73;;;1.63;;
938;SDS011;456;53.584;9.968;2024-01-16T08:26:22;2.30;;;1.47;;
938;SDS011;456;53.584;9.968;2024-01-16T08:28:48;2.40;;;1.70;;
938;SDS011;456;53.584;9.968;2024-01-16T08:31:16;2.93;;;2.00;;
938;SDS011;456;53.584;9.968;2024-01-16T08:33:43;1.93;;;1.50;;
938;SDS011;456;53.584;9.968;2024-01-16T08:36:09;1.50;;;1.40;;
938;SDS011;456;53.584;9.968;2024-01-16T08:38:34;1.70;;;1.50;;
938;SDS011;456;53.584;9.968;2024-01-16T08:41:00;2.13;;;1.57;;
938;SDS011;456;53.584;9.968;2024-01-16T08:43:25;1.83;;;1.43;;
938;SDS011;456;53.584;9.968;2024-01-16T08:45:51;1.60;;;1.40;;
938;SDS011;456;53.584;9.968;2024-01-16T08:48:17;1.23;;;1.10;;
938;SDS011;456;53.584;9.968;2024-01-16T08:50:42;1.93;;;1.40;;
938;SDS011;456;53.584;9.968;2024-01-16T08:53:08;1.70;;;1.27;;
938;SDS011;456;53.584;9.968;2024-01-16T08:55:33;1.23;;;1.10;;
938;SDS011;456;53.584;9.968;2024-01-16T08:57:59;1.53;;;1.37;;
938;SDS011;456;53.584;9.968;2024-01-16T09:00:24;3.77;;;1.57;;
938;SDS011;456;53.584;9.968;2024-01-16T09:02:50;2.23;;;1.30;;
938;SDS011;456;53.584;9.968;2024-01-16T09:05:16;2.03;;;1.40;;
938;SDS011;456;53.584;9.968;2024-01-16T09:07:41;3.10;;;1.30;;
938;SDS011;456;53.584;9.968;2024-01-16T09:10:07;1.90;;;1.20;;
938;SDS011;456;53.584;9.968;2024-01-16T09:12:33;2.50;;;1.30;;
938;SDS011;456;53.584;9.968;2024-01-16T09:14:59;2.00;;;1.23;;
938;SDS011;456;53.584;9.968;2024-01-16T09:17:24;3.70;;;1.53;;
938;SDS011;456;53.584;9.968;2024-01-16T09:19:53;1.33;;;1.20;;
938;SDS011;456;53.584;9.968;2024-01-16T09:22:18;1.83;;;1.20;;
938;SDS011;456;53.584;9.968;2024-01-16T09:24:44;1.97;;;1.23;;
938;SDS011;456;53.584;9.968;2024-01-16T09:27:09;2.30;;;1.20;;
938;SDS011;456;53.584;9.968;2024-01-16T09:29:35;1.87;;;1.10;;
938;SDS011;456;53.584;9.968;2024-01-16T09:32:01;3.40;;;1.20;;
938;SDS011;456;53.584;9.968;2024-01-16T09:34:27;1.80;;;1.10;;
938;SDS011;456;53.584;9.968;2024-01-16T09:36:53;2.13;;;1.63;;
938;SDS011;456;53.584;9.968;2024-01-16T09:39:24;2.60;;;1.37;;
938;SDS011;456;53.584;9.968;2024-01-16T09:41:49;2.13;;;1.20;;
938;SDS011;456;53.584;9.968;2024-01-16T09:44:15;1.30;;;1.20;;
938;SDS011;456;53.584;9.968;2024-01-16T09:46:40;2.63;;;1.20;;
938;SDS011;456;53.584;9.968;2024-01-16T09:49:11;2.10;;;1.57;;
938;SDS011;456;53.584;9.968;2024-01-16T09:51:39;2.00;;;1.30;;
938;SDS011;456;53.584;9.968;2024-01-16T09:54:05;4.63;;;1.20;;
938;SDS011;456;53.584;9.968;2024-01-16T09:56:34;2.00;;;1.10;;
938;SDS011;456;53.584;9.968;2024-01-16T09:59:05;1.30;;;1.20;;
938;SDS011;456;53.584;9.968;2024-01-16T10:01:31;1.20;;;1.00;;
938;SDS011;456;53.584;9.968;2024-01-16T10:03:58;1.47;;;1.20;;
938;SDS011;456;53.584;9.968;2024-01-16T10:06:24;2.80;;;1.50;;
938;SDS011;456;53.584;9.968;2024-01-16T10:08:53;3.93;;;1.50;;
938;SDS011;456;53.584;9.968;2024-01-16T10:11:18;2.90;;;1.17;;
938;SDS011;456;53.584;9.968;2024-01-16T10:13:44;2.27;;;1.37;;
938;SDS011;456;53.584;9.968;2024-01-16T10:16:10;1.40;;;1.20;;
938;SDS011;456;53.584;9.968;2024-01-16T10:18:35;2.20;;;1.40;;
938;SDS011;456;53.584;9.968;2024-01-16T10:21:06;1.57;;;1.20;;
938;SDS011;456;53.584;9.968;2024-01-16T10:23:46;3.47;;;1.30;;
938;SDS011;456;53.584;9.968;2024-01-16T10:26:12;1.87;;;1.67;;
938;SDS011;456;53.584;9.968;2024-01-16T10:28:40;1.70;;;1.40;;
938;SDS011;456;53.584;9.968;2024-01-16T10:31:08;1.70;;;1.17;;
938;SDS011;456;53.584;9.968;2024-01-16T10:33:35;1.43;;;1.30;;
938;SDS011;456;53.584;9.968;2024-01-16T10:36:11;2.63;;;1.87;;
938;SDS011;456;53.584;9.968;2024-01-16T10:38:38;1.53;;;1.43;;
938;SDS011;456;53.584;9.968;2024-01-16T10:41:14;1.93;;;1.63;;
938;SDS011;456;53.584;9.968;2024-01-16T10:43:42;2.57;;;1.33;;
938;SDS011;456;53.584;9.968;2024-01-16T10:48:42;2.50;;;1.90;;
938;SDS011;456;53.584;9.968;2024-01-16T10:51:10;2.60;;;1.30;;
938;SDS011;456;53.584;9.968;2024-01-16T10:53:40;2.63;;;1.87;;
938;SDS011;456;53.584;9.968;2024-01-16T10:56:09;3.13;;;1.70;;
938;SDS011;456;53.584;9.968;2024-01-16T10:58:36;2.40;;;1.63;;
938;SDS011;456;53.584;9.968;2024-01-16T11:01:06;2.00;;;1.47;;
938;SDS011;456;53.584;9.968;2024-01-16T11:06:16;3.83;;;2.10;;
938;SDS011;456;53.584;9.968;2024-01-16T11:08:44;1.70;;;1.40;;
938;SDS011;456;53.584;9.968;2024-01-16T11:11:11;2.40;;;1.90;;
938;SDS011;456;53.584;9.968;2024-01-16T11:13:38;1.77;;;1.40;;
938;SDS011;456;53.584;9.968;2024-01-16T11:16:05;1.57;;;1.30;;
938;SDS011;456;53.584;9.968;2024-01-16T11:18:32;2.03;;;1.60;;
938;SDS011;456;53.584;9.968;2024-01-16T11:20:58;4.40;;;1.97;;
938;SDS011;456;53.584;9.968;2024-01-16T11:23:25;2.70;;;1.67;;
938;SDS011;456;53.584;9.968;2024-01-16T11:25:51;1.57;;;1.43;;
938;SDS011;456;53.584;9.968;2024-01-16T11:28:17;1.80;;;1.70;;
938;SDS011;456;53.584;9.968;2024-01-16T11:30:44;1.60;;;1.50;;
938;SDS011;456;53.584;9.968;2024-01-16T11:35:55;2.13;;;1.93;;
938;SDS011;456;53.584;9.968;2024-01-16T11:38:21;2.20;;;1.80;;
938;SDS011;456;53.584;9.968;2024-01-16T11:40:47;2.20;;;1.97;;
938;SDS011;456;53.584;9.968;2024-01-16T11:45:57;2.93;;;1.90;;
938;SDS011;456;53.584;9.968;2024-01-16T11:48:23;2.10;;;1.90;;
938;SDS011;456;53.584;9.968;2024-01-16T11:50:50;2.13;;;1.90;;
938;SDS011;456;53.584;9.968;2024-01-16T11:53:31;2.10;;;1.90;;
938;SDS011;456;53.584;9.968;2024-01-16T12:01:11;2.30;;;2.00;;
938;SDS011;456;53.584;9.968;2024-01-16T12:03:38;3.37;;;2.43;;
938;SDS011;456;53.584;9.968;2024-01-16T12:06:04;2.43;;;2.23;;
938;SDS011;456;53.584;9.968;2024-01-16T12:08:31;3.03;;;2.00;;
938;SDS011;456;53.584;9.968;2024-01-16T12:10:57;3.30;;;2.00;;
938;SDS011;456;53.584;9.968;2024-01-16T12:13:24;2.20;;;1.90;;
938;SDS011;456;53.584;9.968;2024-01-16T12:16:00;2.67;;;2.47;;
938;SDS011;456;53.584;9.968;2024-01-16T12:18:26;1.97;;;1.83;;
938;SDS011;456;53.584;9.968;2024-01-16T12:20:52;2.80;;;2.00;;
938;SDS011;456;53.584;9.968;2024-01-16T12:23:18;2.37;;;2.17;;
938;SDS011;456;53.584;9.968;2024-01-16T12:25:45;3.80;;;2.20;;
938;SDS011;456;53.584;9.968;2024-01-16T12:28:12;2.43;;;2.23;;
938;SDS011;456;53.584;9.968;2024-01-16T12:30:48;2.30;;;2.10;;
938;SDS011;456;53.584;9.968;2024-01-16T12:33:14;2.30;;;2.00;;
938;SDS011;456;53.584;9.968;2024-01-16T12:35:42;2.17;;;1.80;;
938;SDS011;456;53.584;9.968;2024-01-16T12:38:10;2.30;;;1.90;;
938;SDS011;456;53.584;9.968;2024-01-16T12:40:36;1.83;;;1.73;;
938;SDS011;456;53.584;9.968;2024-01-16T12:43:03;1.80;;;1.70;;
938;SDS011;456;53.584;9.968;2024-01-16T12:45:30;2.40;;;2.20;;
938;SDS011;456;53.584;9.968;2024-01-16T12:47:56;1.83;;;1.73;;
938;SDS011;456;53.584;9.968;2024-01-16T12:50:26;2.23;;;1.80;;
938;SDS011;456;53.584;9.968;2024-01-16T12:53:11;1.90;;;1.80;;
938;SDS011;456;53.584;9.968;2024-01-16T12:55:38;2.50;;;2.00;;
938;SDS011;456;53.584;9.968;2024-01-16T13:00:45;2.17;;;2.07;;
938;SDS011;456;53.584;9.968;2024-01-16T13:03:15;2.47;;;1.97;;
938;SDS011;456;53.584;9.968;2024-01-16T13:05:42;2.30;;;2.10;;
938;SDS011;456;53.584;9.968;2024-01-16T13:08:08;2.20;;;2.10;;
938;SDS011;456;53.584;9.968;2024-01-16T13:10:34;2.43;;;2.10;;
938;SDS011;456;53.584;9.968;2024-01-16T13:15:39;2.27;;;2.03;;
938;SDS011;456;53.584;9.968;2024-01-16T13:18:05;1.93;;;1.83;;
938;SDS011;456;53.584;9.968;2024-01-16T13:20:31;2.20;;;2.00;;
938;SDS011;456;53.584;9.968;2024-01-16T13:22:58;2.30;;;2.17;;
938;SDS011;456;53.584;9.968;2024-01-16T13:25:24;3.20;;;2.00;;
938;SDS011;456;53.584;9.968;2024-01-16T13:27:51;3.20;;;2.10;;
938;SDS011;456;53.584;9.968;2024-01-16T13:30:18;2.37;;;2.17;;
938;SDS011;456;53.584;9.968;2024-01-16T13:32:44;2.20;;;2.10;;
938;SDS011;456;53.584;9.968;2024-01-16T13:35:10;2.40;;;2.20;;
938;SDS011;456;53.584;9.968;2024-01-16T13:37:37;2.20;;;2.00;;
938;SDS011;456;53.584;9.968;2024-01-16T13:40:04;2.40;;;2.20;;
938;SDS011;456;53.584;9.968;2024-01-16T13:42:33;1.97;;;1.87;;
938;SDS011;456;53.584;9.968;2024-01-16T13:45:00;2.40;;;2.20;;
938;SDS011;456;53.584;9.968;2024-01-16T13:47:26;2.20;;;2.00;;
938;SDS011;456;53.584;9.968;2024-01-16T13:49:52;2.47;;;2.27;;
938;SDS011;456;53.584;9.968;2024-01-16T13:52:18;3.50;;;2.70;;
938;SDS011;456;53.584;9.968;2024-01-16T13:54:44;3.00;;;2.70;;
938;SDS011;456;53.584;9.968;2024-01-16T13:57:10;3.10;;;2.50;;
938;SDS011;456;53.584;9.968;2024-01-16T13:59:36;2.87;;;2.57;;
938;SDS011;456;53.584;9.968;2024-01-16T14:02:03;4.13;;;2.53;;
938;SDS011;456;53.584;9.968;2024-01-16T14:04:33;2.63;;;2.43;;
938;SDS011;456;53.584;9.968;2024-01-16T14:06:59;6.27;;;2.83;;
938;SDS011;456;53.584;9.968;2024-01-16T14:09:26;3.00;;;2.73;;
938;SDS011;456;53.584;9.968;2024-01-16T14:11:52;2.93;;;2.37;;
938;SDS011;456;53.584;9.968;2024-01-16T14:14:18;3.00;;;2.70;;
938;SDS011;456;53.584;9.968;2024-01-16T14:16:44;2.67;;;2.47;;
938;SDS011;456;53.584;9.968;2024-01-16T14:19:14;4.43;;;2.70;;
938;SDS011;456;53.584;9.968;2024-01-16T14:21:40;2.40;;;2.20;;
938;SDS011;456;53.584;9.968;2024-01-16T14:24:06;3.10;;;2.30;;
938;SDS011;456;53.584;9.968;2024-01-16T14:26:32;2.80;;;2.60;;
938;SDS011;456;53.584;9.968;2024-01-16T14:28:59;2.67;;;2.47;;
938;SDS011;456;53.584;9.968;2024-01-16T14:31:25;2.13;;;2.00;;
938;SDS011;456;53.584;9.968;2024-01-16T14:33:51;2.73;;;2.20;;
938;SDS011;456;53.584;9.968;2024-01-16T14:36:18;3.10;;;2.80;;
938;SDS011;456;53.584;9.968;2024-01-16T14:38:44;2.73;;;2.53;;
938;SDS011;456;53.584;9.968;2024-01-16T14:41:10;2.63;;;2.43;;
938;SDS011;456;53.584;9.968;2024-01-16T14:43:37;2.80;;;2.57;;
938;SDS011;456;53.584;9.968;2024-01-16T14:46:03;2.60;;;2.30;;
938;SDS011;456;53.584;9.968;2024-01-16T14:48:29;2.30;;;2.20;;
938;SDS011;456;53.584;9.968;2024-01-16T14:50:55;3.07;;;2.60;;
938;SDS011;456;53.584;9.968;2024-01-16T14:53:24;2.43;;;2.23;;
938;SDS011;456;53.584;9.968;2024-01-16T14:55:50;2.50;;;2.30;;
938;SDS011;456;53.584;9.968;2024-01-16T14:58:18;2.47;;;2.27;;
938;SDS011;456;53.584;9.968;2024-01-16T15:00:48;2.53;;;2.33;;
938;SDS011;456;53.584;9.968;2024-01-16T15:03:14;2.50;;;2.30;;
938;SDS011;456;53.584;9.968;2024-01-16T15:05:40;2.67;;;2.47;;
938;SDS011;456;53.584;9.968;2024-01-16T15:08:06;2.70;;;2.30;;
938;SDS011;456;53.584;9.968;2024-01-16T15:10:32;2.40;;;2.20;;
938;SDS011;456;53.584;9.968;2024-01-16T15:12:58;2.10;;;1.90;;
938;SDS011;456;53.584;9.968;2024-01-16T15:15:24;2.97;;;2.70;;
938;SDS011;456;53.584;9.968;2024-01-16T15:17:50;3.50;;;2.20;;
938;SDS011;456;53.584;9.968;2024-01-16T15:20:17;2.73;;;2.53;;
938;SDS011;456;53.584;9.968;2024-01-16T15:22:43;2.90;;;2.50;;
938;SDS011;456;53.584;9.968;2024-01-16T15:25:10;2.40;;;2.30;;
938;SDS011;456;53.584;9.968;2024-01-16T15:27:38;3.33;;;2.70;;
938;SDS011;456;53.584;9.968;2024-01-16T15:30:05;3.57;;;2.63;;
938;SDS011;456;53.584;9.968;2024-01-16T15:32:33;2.70;;;2.50;;
938;SDS011;456;53.584;9.968;2024-01-16T15:34:59;2.53;;;2.33;;
938;SDS011;456;53.584;9.968;2024-01-16T15:37:25;2.33;;;2.13;;
938;SDS011;456;53.584;9.968;2024-01-16T15:39:51;2.70;;;2.47;;
938;SDS011;456;53.584;9.968;2024-01-16T15:42:17;4.57;;;2.30;;
938;SDS011;456;53.584;9.968;2024-01-16T15:44:43;3.00;;;2.70;;
938;SDS011;456;53.584;9.968;2024-01-16T15:47:09;2.70;;;2.10;;
938;SDS011;456;53.584;9.968;2024-01-16T15:49:36;2.00;;;1.80;;
938;SDS011;456;53.584;9.968;2024-01-16T15:52:03;2.27;;;2.07;;
938;SDS011;456;53.584;9.968;2024-01-16T15:54:29;2.60;;;2.33;;
938;SDS011;456;53.584;9.968;2024-01-16T15:56:56;2.10;;;1.90;;
938;SDS011;456;53.584;9.968;2024-01-16T15:59:22;2.40;;;2.07;;
938;SDS011;456;53.584;9.968;2024-01-16T16:01:48;2.20;;;1.90;;